sensor_id;sensor_type;location;lat;lon;timestamp;temperature;humidity
21355;DHT22;10835;50.148;19.760;2023-08-06T00:00:31;27.40;85.60
21355;DHT22;10835;50.148;19.760;2023-08-06T00:02:59;27.60;85.10
21355;DHT22;10835;50.148;19.760;2023-08-06T00:05:27;27.80;84.80
21355;DHT22;10835;50.148;19.760;2023-08-06T00:07:56;28.00;84.00
21355;DHT22;10835;50.148;19.760;2023-08-06T00:10:24;28.10;83.50
21355;DHT22;10835;50.148;19.760;2023-08-06T00:12:53;28.20;83.20
21355;DHT22;10835;50.148;19.760;2023-08-06T00:15:22;27.80;83.10
21355;DHT22;10835;50.148;19.760;2023-08-06T00:17:51;27.80;83.80
21355;DHT22;10835;50.148;19.760;2023-08-06T00:20:20;28.00;83.20
21355;DHT22;10835;50.148;19.760;2023-08-06T00:22:48;27.70;83.60
21355;DHT22;10835;50.148;19.760;2023-08-06T00:25:17;27.70;83.70
21355;DHT22;10835;50.148;19.760;2023-08-06T00:27:45;27.40;84.70
21355;DHT22;10835;50.148;19.760;2023-08-06T00:30:14;27.50;84.90
21355;DHT22;10835;50.148;19.760;2023-08-06T00:32:42;27.60;84.80
21355;DHT22;10835;50.148;19.760;2023-08-06T00:35:18;27.70;84.20
21355;DHT22;10835;50.148;19.760;2023-08-06T00:37:47;27.60;84.00
21355;DHT22;10835;50.148;19.760;2023-08-06T00:40:15;27.30;84.70
21355;DHT22;10835;50.148;19.760;2023-08-06T00:42:43;27.10;85.50
21355;DHT22;10835;50.148;19.760;2023-08-06T00:45:13;27.20;85.50
21355;DHT22;10835;50.148;19.760;2023-08-06T00:47:42;27.40;85.50
21355;DHT22;10835;50.148;19.760;2023-08-06T00:50:11;27.60;85.00
21355;DHT22;10835;50.148;19.760;2023-08-06T00:52:41;27.60;84.70
21355;DHT22;10835;50.148;19.760;2023-08-06T00:55:10;27.70;84.50
21355;DHT22;10835;50.148;19.760;2023-08-06T00:57:38;27.80;84.20
21355;DHT22;10835;50.148;19.760;2023-08-06T01:00:08;27.70;84.20
21355;DHT22;10835;50.148;19.760;2023-08-06T01:02:39;27.60;84.30
21355;DHT22;10835;50.148;19.760;2023-08-06T01:05:08;27.70;84.70
21355;DHT22;10835;50.148;19.760;2023-08-06T01:07:47;27.50;84.50
21355;DHT22;10835;50.148;19.760;2023-08-06T01:10:30;27.70;84.20
21355;DHT22;10835;50.148;19.760;2023-08-06T01:13:08;27.40;84.90
21355;DHT22;10835;50.148;19.760;2023-08-06T01:15:42;26.90;86.70
21355;DHT22;10835;50.148;19.760;2023-08-06T01:18:14;26.80;86.90
21355;DHT22;10835;50.148;19.760;2023-08-06T01:20:44;26.70;87.20
21355;DHT22;10835;50.148;19.760;2023-08-06T01:23:12;26.60;88.40
21355;DHT22;10835;50.148;19.760;2023-08-06T01:25:48;26.80;88.20
21355;DHT22;10835;50.148;19.760;2023-08-06T01:28:22;27.00;87.70
21355;DHT22;10835;50.148;19.760;2023-08-06T01:30:54;27.20;87.30
21355;DHT22;10835;50.148;19.760;2023-08-06T01:33:23;26.80;87.20
21355;DHT22;10835;50.148;19.760;2023-08-06T01:35:54;27.10;87.10
21355;DHT22;10835;50.148;19.760;2023-08-06T01:38:24;27.40;86.20
21355;DHT22;10835;50.148;19.760;2023-08-06T01:40:55;27.60;85.50
21355;DHT22;10835;50.148;19.760;2023-08-06T01:43:23;27.80;85.10
21355;DHT22;10835;50.148;19.760;2023-08-06T01:45:51;27.60;85.20
21355;DHT22;10835;50.148;19.760;2023-08-06T01:48:20;27.70;85.50
21355;DHT22;10835;50.148;19.760;2023-08-06T01:50:49;27.70;85.40
21355;DHT22;10835;50.148;19.760;2023-08-06T01:53:19;27.60;85.70
21355;DHT22;10835;50.148;19.760;2023-08-06T01:55:48;27.70;85.30
21355;DHT22;10835;50.148;19.760;2023-08-06T01:58:17;27.70;85.20
21355;DHT22;10835;50.148;19.760;2023-08-06T02:00:45;27.90;84.90
21355;DHT22;10835;50.148;19.760;2023-08-06T02:03:13;27.90;84.60
21355;DHT22;10835;50.148;19.760;2023-08-06T02:05:42;28.00;84.40
21355;DHT22;10835;50.148;19.760;2023-08-06T02:08:10;28.10;83.80
21355;DHT22;10835;50.148;19.760;2023-08-06T02:10:40;28.10;83.70
21355;DHT22;10835;50.148;19.760;2023-08-06T02:13:08;28.10;83.70
21355;DHT22;10835;50.148;19.760;2023-08-06T02:15:42;28.20;83.40
21355;DHT22;10835;50.148;19.760;2023-08-06T02:18:10;28.20;83.30
21355;DHT22;10835;50.148;19.760;2023-08-06T02:20:39;28.30;83.40
21355;DHT22;10835;50.148;19.760;2023-08-06T02:23:07;28.30;83.20
21355;DHT22;10835;50.148;19.760;2023-08-06T02:25:35;28.30;83.10
21355;DHT22;10835;50.148;19.760;2023-08-06T02:28:05;28.20;82.90
21355;DHT22;10835;50.148;19.760;2023-08-06T02:30:33;28.20;82.90
21355;DHT22;10835;50.148;19.760;2023-08-06T02:33:02;28.20;82.90
21355;DHT22;10835;50.148;19.760;2023-08-06T02:35:30;28.30;82.70
21355;DHT22;10835;50.148;19.760;2023-08-06T02:37:58;28.40;82.60
21355;DHT22;10835;50.148;19.760;2023-08-06T02:40:27;28.40;82.50
21355;DHT22;10835;50.148;19.760;2023-08-06T02:42:55;28.50;82.50
21355;DHT22;10835;50.148;19.760;2023-08-06T02:45:25;28.50;82.60
21355;DHT22;10835;50.148;19.760;2023-08-06T02:47:53;28.50;83.20
21355;DHT22;10835;50.148;19.760;2023-08-06T02:50:22;28.50;82.20
21355;DHT22;10835;50.148;19.760;2023-08-06T02:52:50;28.50;82.30
21355;DHT22;10835;50.148;19.760;2023-08-06T02:55:18;28.50;82.40
21355;DHT22;10835;50.148;19.760;2023-08-06T02:57:48;28.50;82.30
21355;DHT22;10835;50.148;19.760;2023-08-06T03:00:17;28.50;82.20
21355;DHT22;10835;50.148;19.760;2023-08-06T03:02:47;28.50;82.20
21355;DHT22;10835;50.148;19.760;2023-08-06T03:05:51;28.50;82.30
21355;DHT22;10835;50.148;19.760;2023-08-06T03:08:27;28.60;82.20
21355;DHT22;10835;50.148;19.760;2023-08-06T03:10:56;28.30;82.50
21355;DHT22;10835;50.148;19.760;2023-08-06T03:13:25;28.20;83.00
21355;DHT22;10835;50.148;19.760;2023-08-06T03:15:54;28.10;83.60
21355;DHT22;10835;50.148;19.760;2023-08-06T03:18:25;28.30;83.70
21355;DHT22;10835;50.148;19.760;2023-08-06T03:20:56;28.40;83.30
21355;DHT22;10835;50.148;19.760;2023-08-06T03:23:28;28.40;83.00
21355;DHT22;10835;50.148;19.760;2023-08-06T03:26:01;28.40;83.10
21355;DHT22;10835;50.148;19.760;2023-08-06T03:28:31;28.40;83.00
21355;DHT22;10835;50.148;19.760;2023-08-06T03:31:01;28.40;83.00
21355;DHT22;10835;50.148;19.760;2023-08-06T03:33:43;28.50;83.00
21355;DHT22;10835;50.148;19.760;2023-08-06T03:36:18;28.40;82.90
21355;DHT22;10835;50.148;19.760;2023-08-06T03:38:47;28.50;82.80
21355;DHT22;10835;50.148;19.760;2023-08-06T03:41:15;28.50;82.70
21355;DHT22;10835;50.148;19.760;2023-08-06T03:43:44;28.50;82.70
21355;DHT22;10835;50.148;19.760;2023-08-06T03:46:19;28.50;82.70
21355;DHT22;10835;50.148;19.760;2023-08-06T03:48:50;28.60;82.70
21355;DHT22;10835;50.148;19.760;2023-08-06T03:51:19;28.60;82.60
21355;DHT22;10835;50.148;19.760;2023-08-06T03:53:48;28.60;82.50
21355;DHT22;10835;50.148;19.760;2023-08-06T03:56:17;28.60;82.30
21355;DHT22;10835;50.148;19.760;2023-08-06T03:58:45;28.60;82.50
21355;DHT22;10835;50.148;19.760;2023-08-06T04:01:14;28.50;82.50
21355;DHT22;10835;50.148;19.760;2023-08-06T04:03:45;28.50;82.70
21355;DHT22;10835;50.148;19.760;2023-08-06T04:06:14;28.50;83.00
21355;DHT22;10835;50.148;19.760;2023-08-06T04:08:43;28.50;83.10
21355;DHT22;10835;50.148;19.760;2023-08-06T04:11:11;28.50;83.10
21355;DHT22;10835;50.148;19.760;2023-08-06T04:13:42;28.50;83.00
21355;DHT22;10835;50.148;19.760;2023-08-06T04:16:11;28.60;82.80
21355;DHT22;10835;50.148;19.760;2023-08-06T04:18:41;28.60;82.40
21355;DHT22;10835;50.148;19.760;2023-08-06T04:21:10;28.40;82.60
21355;DHT22;10835;50.148;19.760;2023-08-06T04:23:41;28.40;83.30
21355;DHT22;10835;50.148;19.760;2023-08-06T04:26:10;28.40;83.40
21355;DHT22;10835;50.148;19.760;2023-08-06T04:28:38;28.40;83.00
21355;DHT22;10835;50.148;19.760;2023-08-06T04:31:08;28.40;83.20
21355;DHT22;10835;50.148;19.760;2023-08-06T04:33:39;28.40;83.20
21355;DHT22;10835;50.148;19.760;2023-08-06T04:36:12;28.40;83.30
21355;DHT22;10835;50.148;19.760;2023-08-06T04:38:41;28.40;83.00
21355;DHT22;10835;50.148;19.760;2023-08-06T04:41:14;28.50;83.10
21355;DHT22;10835;50.148;19.760;2023-08-06T04:43:42;28.60;83.00
21355;DHT22;10835;50.148;19.760;2023-08-06T04:46:10;28.70;83.00
21355;DHT22;10835;50.148;19.760;2023-08-06T04:48:39;28.70;82.60
21355;DHT22;10835;50.148;19.760;2023-08-06T04:51:07;28.70;82.30
21355;DHT22;10835;50.148;19.760;2023-08-06T04:53:35;28.80;82.20
21355;DHT22;10835;50.148;19.760;2023-08-06T04:56:06;28.80;82.40
21355;DHT22;10835;50.148;19.760;2023-08-06T04:58:34;28.80;82.30
21355;DHT22;10835;50.148;19.760;2023-08-06T05:01:05;28.80;82.00
21355;DHT22;10835;50.148;19.760;2023-08-06T05:03:36;28.80;81.90
21355;DHT22;10835;50.148;19.760;2023-08-06T05:06:04;28.80;82.00
21355;DHT22;10835;50.148;19.760;2023-08-06T05:08:33;28.80;82.00
21355;DHT22;10835;50.148;19.760;2023-08-06T05:11:01;28.80;82.00
21355;DHT22;10835;50.148;19.760;2023-08-06T05:13:31;28.80;81.80
21355;DHT22;10835;50.148;19.760;2023-08-06T05:15:59;28.80;81.80
21355;DHT22;10835;50.148;19.760;2023-08-06T05:18:27;28.90;81.60
21355;DHT22;10835;50.148;19.760;2023-08-06T05:20:57;28.90;81.30
21355;DHT22;10835;50.148;19.760;2023-08-06T05:23:28;28.90;81.30
21355;DHT22;10835;50.148;19.760;2023-08-06T05:25:56;29.00;81.20
21355;DHT22;10835;50.148;19.760;2023-08-06T05:28:25;29.00;81.30
21355;DHT22;10835;50.148;19.760;2023-08-06T05:30:54;29.00;81.30
21355;DHT22;10835;50.148;19.760;2023-08-06T05:33:23;29.00;81.70
21355;DHT22;10835;50.148;19.760;2023-08-06T05:35:54;29.00;81.70
21355;DHT22;10835;50.148;19.760;2023-08-06T05:38:22;28.90;81.90
21355;DHT22;10835;50.148;19.760;2023-08-06T05:40:51;28.90;82.30
21355;DHT22;10835;50.148;19.760;2023-08-06T05:43:19;28.90;82.40
21355;DHT22;10835;50.148;19.760;2023-08-06T05:45:49;28.90;82.40
21355;DHT22;10835;50.148;19.760;2023-08-06T05:48:19;28.80;82.40
21355;DHT22;10835;50.148;19.760;2023-08-06T05:50:49;28.80;82.30
21355;DHT22;10835;50.148;19.760;2023-08-06T05:53:17;28.70;82.50
21355;DHT22;10835;50.148;19.760;2023-08-06T05:55:49;28.70;82.90
21355;DHT22;10835;50.148;19.760;2023-08-06T05:58:19;28.80;82.70
21355;DHT22;10835;50.148;19.760;2023-08-06T06:00:47;28.70;82.60
21355;DHT22;10835;50.148;19.760;2023-08-06T06:03:16;28.70;82.50
21355;DHT22;10835;50.148;19.760;2023-08-06T06:05:46;28.70;82.60
21355;DHT22;10835;50.148;19.760;2023-08-06T06:08:14;28.70;82.50
21355;DHT22;10835;50.148;19.760;2023-08-06T06:10:43;28.70;82.50
21355;DHT22;10835;50.148;19.760;2023-08-06T06:13:11;28.70;82.20
21355;DHT22;10835;50.148;19.760;2023-08-06T06:15:39;28.70;82.20
21355;DHT22;10835;50.148;19.760;2023-08-06T06:18:08;28.70;82.40
21355;DHT22;10835;50.148;19.760;2023-08-06T06:20:36;28.70;82.30
21355;DHT22;10835;50.148;19.760;2023-08-06T06:23:06;28.80;82.40
21355;DHT22;10835;50.148;19.760;2023-08-06T06:25:34;28.80;82.20
21355;DHT22;10835;50.148;19.760;2023-08-06T06:28:02;28.80;82.10
21355;DHT22;10835;50.148;19.760;2023-08-06T06:30:31;28.80;82.20
21355;DHT22;10835;50.148;19.760;2023-08-06T06:32:59;28.80;82.30
21355;DHT22;10835;50.148;19.760;2023-08-06T06:35:28;28.90;82.20
21355;DHT22;10835;50.148;19.760;2023-08-06T06:37:56;28.90;82.10
21355;DHT22;10835;50.148;19.760;2023-08-06T06:40:26;28.90;81.60
21355;DHT22;10835;50.148;19.760;2023-08-06T06:42:54;28.90;81.60
21355;DHT22;10835;50.148;19.760;2023-08-06T06:45:22;28.90;81.40
21355;DHT22;10835;50.148;19.760;2023-08-06T06:47:51;28.90;81.30
21355;DHT22;10835;50.148;19.760;2023-08-06T06:50:19;28.90;81.40
21355;DHT22;10835;50.148;19.760;2023-08-06T06:52:47;28.90;81.60
21355;DHT22;10835;50.148;19.760;2023-08-06T06:55:16;28.80;81.40
21355;DHT22;10835;50.148;19.760;2023-08-06T06:57:47;28.80;81.50
21355;DHT22;10835;50.148;19.760;2023-08-06T07:00:16;28.80;81.50
21355;DHT22;10835;50.148;19.760;2023-08-06T07:02:44;28.80;81.60
21355;DHT22;10835;50.148;19.760;2023-08-06T07:05:13;28.80;81.70
21355;DHT22;10835;50.148;19.760;2023-08-06T07:07:41;28.70;81.60
21355;DHT22;10835;50.148;19.760;2023-08-06T07:10:10;28.70;81.70
21355;DHT22;10835;50.148;19.760;2023-08-06T07:12:39;28.70;81.70
21355;DHT22;10835;50.148;19.760;2023-08-06T07:15:09;28.70;81.70
21355;DHT22;10835;50.148;19.760;2023-08-06T07:17:38;28.70;81.70
21355;DHT22;10835;50.148;19.760;2023-08-06T07:20:07;28.60;82.00
21355;DHT22;10835;50.148;19.760;2023-08-06T07:22:37;28.60;82.30
21355;DHT22;10835;50.148;19.760;2023-08-06T07:25:07;28.60;82.20
21355;DHT22;10835;50.148;19.760;2023-08-06T07:27:36;28.50;82.10
21355;DHT22;10835;50.148;19.760;2023-08-06T07:30:10;28.60;82.80
21355;DHT22;10835;50.148;19.760;2023-08-06T07:32:38;28.70;82.90
21355;DHT22;10835;50.148;19.760;2023-08-06T07:35:07;28.80;82.90
21355;DHT22;10835;50.148;19.760;2023-08-06T07:37:39;28.80;82.40
21355;DHT22;10835;50.148;19.760;2023-08-06T07:40:08;28.80;82.30
21355;DHT22;10835;50.148;19.760;2023-08-06T07:42:37;28.80;82.00
21355;DHT22;10835;50.148;19.760;2023-08-06T07:45:06;28.60;82.00
21355;DHT22;10835;50.148;19.760;2023-08-06T07:47:36;28.20;82.70
21355;DHT22;10835;50.148;19.760;2023-08-06T07:50:05;28.00;83.80
21355;DHT22;10835;50.148;19.760;2023-08-06T07:52:34;28.20;80.30
21355;DHT22;10835;50.148;19.760;2023-08-06T07:55:03;27.80;78.00
21355;DHT22;10835;50.148;19.760;2023-08-06T07:57:32;27.20;79.60
21355;DHT22;10835;50.148;19.760;2023-08-06T08:00:01;27.00;81.40
21355;DHT22;10835;50.148;19.760;2023-08-06T08:02:40;26.90;82.30
21355;DHT22;10835;50.148;19.760;2023-08-06T08:05:08;26.60;83.40
21355;DHT22;10835;50.148;19.760;2023-08-06T08:07:37;26.30;83.10
21355;DHT22;10835;50.148;19.760;2023-08-06T08:10:09;26.00;85.30
21355;DHT22;10835;50.148;19.760;2023-08-06T08:12:37;26.00;85.50
21355;DHT22;10835;50.148;19.760;2023-08-06T08:15:06;25.70;85.50
21355;DHT22;10835;50.148;19.760;2023-08-06T08:17:35;25.40;86.80
21355;DHT22;10835;50.148;19.760;2023-08-06T08:20:06;25.60;86.50
21355;DHT22;10835;50.148;19.760;2023-08-06T08:22:34;25.70;85.60
21355;DHT22;10835;50.148;19.760;2023-08-06T08:25:03;25.80;85.50
21355;DHT22;10835;50.148;19.760;2023-08-06T08:27:31;25.80;85.70
21355;DHT22;10835;50.148;19.760;2023-08-06T08:30:00;25.90;85.20
21355;DHT22;10835;50.148;19.760;2023-08-06T08:32:28;25.90;85.40
21355;DHT22;10835;50.148;19.760;2023-08-06T08:34:56;25.80;85.80
21355;DHT22;10835;50.148;19.760;2023-08-06T08:37:26;25.80;85.10
21355;DHT22;10835;50.148;19.760;2023-08-06T08:39:55;25.90;85.50
21355;DHT22;10835;50.148;19.760;2023-08-06T08:42:23;25.80;85.50
21355;DHT22;10835;50.148;19.760;2023-08-06T08:44:53;25.70;84.70
21355;DHT22;10835;50.148;19.760;2023-08-06T08:47:21;25.50;85.30
21355;DHT22;10835;50.148;19.760;2023-08-06T08:49:54;25.40;84.70
21355;DHT22;10835;50.148;19.760;2023-08-06T08:52:24;25.30;85.00
21355;DHT22;10835;50.148;19.760;2023-08-06T08:54:55;25.10;85.20
21355;DHT22;10835;50.148;19.760;2023-08-06T08:57:24;25.10;85.70
21355;DHT22;10835;50.148;19.760;2023-08-06T08:59:52;25.10;85.70
21355;DHT22;10835;50.148;19.760;2023-08-06T09:02:21;24.90;86.10
21355;DHT22;10835;50.148;19.760;2023-08-06T09:04:51;24.80;85.90
21355;DHT22;10835;50.148;19.760;2023-08-06T09:07:21;24.90;86.10
21355;DHT22;10835;50.148;19.760;2023-08-06T09:09:50;24.80;86.40
21355;DHT22;10835;50.148;19.760;2023-08-06T09:12:21;24.90;85.90
21355;DHT22;10835;50.148;19.760;2023-08-06T09:14:50;24.80;87.40
21355;DHT22;10835;50.148;19.760;2023-08-06T09:17:19;25.30;85.80
21355;DHT22;10835;50.148;19.760;2023-08-06T09:19:48;25.50;86.40
21355;DHT22;10835;50.148;19.760;2023-08-06T09:22:16;25.90;83.70
21355;DHT22;10835;50.148;19.760;2023-08-06T09:24:45;25.80;83.40
21355;DHT22;10835;50.148;19.760;2023-08-06T09:27:14;25.60;83.80
21355;DHT22;10835;50.148;19.760;2023-08-06T09:29:44;25.50;85.10
21355;DHT22;10835;50.148;19.760;2023-08-06T09:32:13;25.50;84.10
21355;DHT22;10835;50.148;19.760;2023-08-06T09:34:42;25.50;84.80
21355;DHT22;10835;50.148;19.760;2023-08-06T09:37:11;25.70;84.60
21355;DHT22;10835;50.148;19.760;2023-08-06T09:39:40;25.60;84.00
21355;DHT22;10835;50.148;19.760;2023-08-06T09:42:09;25.30;85.00
21355;DHT22;10835;50.148;19.760;2023-08-06T09:44:40;25.20;84.20
21355;DHT22;10835;50.148;19.760;2023-08-06T09:47:10;25.20;84.60
21355;DHT22;10835;50.148;19.760;2023-08-06T09:49:42;25.30;84.40
21355;DHT22;10835;50.148;19.760;2023-08-06T09:52:13;25.40;85.20
21355;DHT22;10835;50.148;19.760;2023-08-06T09:54:43;25.30;84.10
21355;DHT22;10835;50.148;19.760;2023-08-06T09:57:14;25.10;85.10
21355;DHT22;10835;50.148;19.760;2023-08-06T09:59:42;25.20;84.90
21355;DHT22;10835;50.148;19.760;2023-08-06T10:02:13;25.30;84.20
21355;DHT22;10835;50.148;19.760;2023-08-06T10:04:44;25.20;84.20
21355;DHT22;10835;50.148;19.760;2023-08-06T10:07:21;25.40;85.00
21355;DHT22;10835;50.148;19.760;2023-08-06T10:09:51;25.40;84.30
21355;DHT22;10835;50.148;19.760;2023-08-06T10:12:20;25.50;84.20
21355;DHT22;10835;50.148;19.760;2023-08-06T10:14:49;25.40;82.60
21355;DHT22;10835;50.148;19.760;2023-08-06T10:17:20;25.40;83.10
21355;DHT22;10835;50.148;19.760;2023-08-06T10:19:55;25.30;83.00
21355;DHT22;10835;50.148;19.760;2023-08-06T10:22:23;25.30;83.70
21355;DHT22;10835;50.148;19.760;2023-08-06T10:24:53;25.30;82.50
21355;DHT22;10835;50.148;19.760;2023-08-06T10:27:27;25.20;83.20
21355;DHT22;10835;50.148;19.760;2023-08-06T10:29:56;25.10;83.20
21355;DHT22;10835;50.148;19.760;2023-08-06T10:32:47;25.00;83.80
21355;DHT22;10835;50.148;19.760;2023-08-06T10:35:29;24.80;84.50
21355;DHT22;10835;50.148;19.760;2023-08-06T10:38:02;24.60;84.80
21355;DHT22;10835;50.148;19.760;2023-08-06T10:40:31;24.40;86.00
21355;DHT22;10835;50.148;19.760;2023-08-06T10:43:00;24.40;85.10
21355;DHT22;10835;50.148;19.760;2023-08-06T10:45:29;24.20;86.00
21355;DHT22;10835;50.148;19.760;2023-08-06T10:47:59;24.20;86.50
21355;DHT22;10835;50.148;19.760;2023-08-06T10:50:28;24.40;86.10
21355;DHT22;10835;50.148;19.760;2023-08-06T10:53:04;24.30;85.90
21355;DHT22;10835;50.148;19.760;2023-08-06T10:55:33;24.40;86.20
21355;DHT22;10835;50.148;19.760;2023-08-06T10:58:01;24.40;85.30
21355;DHT22;10835;50.148;19.760;2023-08-06T11:00:31;24.40;86.40
21355;DHT22;10835;50.148;19.760;2023-08-06T11:03:01;24.40;86.30
21355;DHT22;10835;50.148;19.760;2023-08-06T11:05:32;24.60;85.40
21355;DHT22;10835;50.148;19.760;2023-08-06T11:08:01;24.50;84.50
21355;DHT22;10835;50.148;19.760;2023-08-06T11:10:29;24.40;85.20
21355;DHT22;10835;50.148;19.760;2023-08-06T11:13:00;24.40;85.70
21355;DHT22;10835;50.148;19.760;2023-08-06T11:15:30;24.30;86.60
21355;DHT22;10835;50.148;19.760;2023-08-06T11:17:58;24.40;86.20
21355;DHT22;10835;50.148;19.760;2023-08-06T11:20:28;24.40;86.70
21355;DHT22;10835;50.148;19.760;2023-08-06T11:22:59;24.60;86.20
21355;DHT22;10835;50.148;19.760;2023-08-06T11:25:27;24.60;84.10
21355;DHT22;10835;50.148;19.760;2023-08-06T11:28:00;24.60;85.00
21355;DHT22;10835;50.148;19.760;2023-08-06T11:30:29;24.40;84.30
21355;DHT22;10835;50.148;19.760;2023-08-06T11:32:57;24.60;85.30
21355;DHT22;10835;50.148;19.760;2023-08-06T11:35:25;24.50;84.00
21355;DHT22;10835;50.148;19.760;2023-08-06T11:37:55;24.40;84.80
21355;DHT22;10835;50.148;19.760;2023-08-06T11:40:24;24.50;83.80
21355;DHT22;10835;50.148;19.760;2023-08-06T11:42:52;24.40;83.70
21355;DHT22;10835;50.148;19.760;2023-08-06T11:45:22;24.30;83.90
21355;DHT22;10835;50.148;19.760;2023-08-06T11:47:51;24.00;84.60
21355;DHT22;10835;50.148;19.760;2023-08-06T11:50:24;23.70;85.70
21355;DHT22;10835;50.148;19.760;2023-08-06T11:52:59;23.70;86.80
21355;DHT22;10835;50.148;19.760;2023-08-06T11:55:28;23.50;87.20
21355;DHT22;10835;50.148;19.760;2023-08-06T11:57:57;23.40;87.40
21355;DHT22;10835;50.148;19.760;2023-08-06T12:00:26;23.30;86.70
21355;DHT22;10835;50.148;19.760;2023-08-06T12:02:54;23.00;87.20
21355;DHT22;10835;50.148;19.760;2023-08-06T12:05:30;23.00;88.20
21355;DHT22;10835;50.148;19.760;2023-08-06T12:08:02;23.30;88.10
21355;DHT22;10835;50.148;19.760;2023-08-06T12:10:32;23.40;86.70
21355;DHT22;10835;50.148;19.760;2023-08-06T12:13:00;23.50;86.00
21355;DHT22;10835;50.148;19.760;2023-08-06T12:15:30;23.40;86.30
21355;DHT22;10835;50.148;19.760;2023-08-06T12:18:00;23.40;86.50
21355;DHT22;10835;50.148;19.760;2023-08-06T12:20:29;23.40;86.70
21355;DHT22;10835;50.148;19.760;2023-08-06T12:22:57;23.20;86.30
21355;DHT22;10835;50.148;19.760;2023-08-06T12:25:27;23.10;86.60
21355;DHT22;10835;50.148;19.760;2023-08-06T12:27:55;23.00;88.70
21355;DHT22;10835;50.148;19.760;2023-08-06T12:30:24;22.90;88.00
21355;DHT22;10835;50.148;19.760;2023-08-06T12:32:55;23.00;87.90
21355;DHT22;10835;50.148;19.760;2023-08-06T12:35:24;23.00;87.70
21355;DHT22;10835;50.148;19.760;2023-08-06T12:37:53;22.90;88.30
21355;DHT22;10835;50.148;19.760;2023-08-06T12:40:25;23.10;87.40
21355;DHT22;10835;50.148;19.760;2023-08-06T12:43:05;23.00;87.70
21355;DHT22;10835;50.148;19.760;2023-08-06T12:45:35;22.70;88.70
21355;DHT22;10835;50.148;19.760;2023-08-06T12:48:04;22.90;88.60
21355;DHT22;10835;50.148;19.760;2023-08-06T12:50:32;23.00;87.60
21355;DHT22;10835;50.148;19.760;2023-08-06T12:53:01;23.10;88.80
21355;DHT22;10835;50.148;19.760;2023-08-06T12:55:32;23.10;88.80
21355;DHT22;10835;50.148;19.760;2023-08-06T12:58:00;23.30;87.10
21355;DHT22;10835;50.148;19.760;2023-08-06T13:00:30;23.10;86.20
21355;DHT22;10835;50.148;19.760;2023-08-06T13:02:58;23.00;86.90
21355;DHT22;10835;50.148;19.760;2023-08-06T13:05:27;22.90;87.60
21355;DHT22;10835;50.148;19.760;2023-08-06T13:07:55;22.70;87.90
21355;DHT22;10835;50.148;19.760;2023-08-06T13:10:23;22.80;88.70
21355;DHT22;10835;50.148;19.760;2023-08-06T13:12:52;22.80;88.10
21355;DHT22;10835;50.148;19.760;2023-08-06T13:15:21;23.00;87.60
21355;DHT22;10835;50.148;19.760;2023-08-06T13:17:51;23.00;86.90
21355;DHT22;10835;50.148;19.760;2023-08-06T13:20:19;22.90;86.90
21355;DHT22;10835;50.148;19.760;2023-08-06T13:22:49;23.10;87.50
21355;DHT22;10835;50.148;19.760;2023-08-06T13:25:20;23.40;87.20
21355;DHT22;10835;50.148;19.760;2023-08-06T13:27:48;23.50;86.70
21355;DHT22;10835;50.148;19.760;2023-08-06T13:30:19;23.70;84.70
21355;DHT22;10835;50.148;19.760;2023-08-06T13:32:47;23.80;85.10
21355;DHT22;10835;50.148;19.760;2023-08-06T13:35:17;23.60;85.80
21355;DHT22;10835;50.148;19.760;2023-08-06T13:37:45;23.50;85.80
21355;DHT22;10835;50.148;19.760;2023-08-06T13:40:15;23.40;86.50
21355;DHT22;10835;50.148;19.760;2023-08-06T13:42:43;23.50;86.70
21355;DHT22;10835;50.148;19.760;2023-08-06T13:45:13;23.40;86.10
21355;DHT22;10835;50.148;19.760;2023-08-06T13:47:41;23.50;87.20
21355;DHT22;10835;50.148;19.760;2023-08-06T13:50:10;23.30;86.30
21355;DHT22;10835;50.148;19.760;2023-08-06T13:52:40;23.40;86.80
21355;DHT22;10835;50.148;19.760;2023-08-06T13:55:08;23.50;86.40
21355;DHT22;10835;50.148;19.760;2023-08-06T13:57:39;23.30;87.20
21355;DHT22;10835;50.148;19.760;2023-08-06T14:00:08;23.30;87.20
21355;DHT22;10835;50.148;19.760;2023-08-06T14:02:42;23.40;87.40
21355;DHT22;10835;50.148;19.760;2023-08-06T14:05:13;23.00;87.80
21355;DHT22;10835;50.148;19.760;2023-08-06T14:07:45;23.10;87.70
21355;DHT22;10835;50.148;19.760;2023-08-06T14:10:15;23.00;88.10
21355;DHT22;10835;50.148;19.760;2023-08-06T14:12:43;23.30;87.50
21355;DHT22;10835;50.148;19.760;2023-08-06T14:15:23;23.50;86.70
21355;DHT22;10835;50.148;19.760;2023-08-06T14:17:52;23.40;86.70
21355;DHT22;10835;50.148;19.760;2023-08-06T14:20:20;23.50;86.20
21355;DHT22;10835;50.148;19.760;2023-08-06T14:22:50;23.40;85.70
21355;DHT22;10835;50.148;19.760;2023-08-06T14:25:19;23.50;86.50
21355;DHT22;10835;50.148;19.760;2023-08-06T14:27:47;23.40;86.40
21355;DHT22;10835;50.148;19.760;2023-08-06T14:30:15;23.60;86.10
21355;DHT22;10835;50.148;19.760;2023-08-06T14:32:44;23.90;84.20
21355;DHT22;10835;50.148;19.760;2023-08-06T14:35:12;23.90;84.00
21355;DHT22;10835;50.148;19.760;2023-08-06T14:37:41;24.10;84.70
21355;DHT22;10835;50.148;19.760;2023-08-06T14:40:12;24.30;84.00
21355;DHT22;10835;50.148;19.760;2023-08-06T14:42:40;24.20;84.00
21355;DHT22;10835;50.148;19.760;2023-08-06T14:45:09;24.20;85.10
21355;DHT22;10835;50.148;19.760;2023-08-06T14:47:38;24.40;84.30
21355;DHT22;10835;50.148;19.760;2023-08-06T14:50:09;24.40;83.60
21355;DHT22;10835;50.148;19.760;2023-08-06T14:52:37;24.50;84.90
21355;DHT22;10835;50.148;19.760;2023-08-06T14:55:10;24.60;83.80
21355;DHT22;10835;50.148;19.760;2023-08-06T14:57:39;24.60;83.40
21355;DHT22;10835;50.148;19.760;2023-08-06T15:00:08;24.70;84.10
21355;DHT22;10835;50.148;19.760;2023-08-06T15:02:37;25.00;82.80
21355;DHT22;10835;50.148;19.760;2023-08-06T15:05:08;25.00;82.10
21355;DHT22;10835;50.148;19.760;2023-08-06T15:07:36;24.70;82.40
21355;DHT22;10835;50.148;19.760;2023-08-06T15:10:05;24.50;82.00
21355;DHT22;10835;50.148;19.760;2023-08-06T15:12:41;24.30;83.60
21355;DHT22;10835;50.148;19.760;2023-08-06T15:15:09;23.90;84.60
21355;DHT22;10835;50.148;19.760;2023-08-06T15:17:39;24.20;84.70
21355;DHT22;10835;50.148;19.760;2023-08-06T15:20:10;24.10;84.90
21355;DHT22;10835;50.148;19.760;2023-08-06T15:22:40;24.10;84.60
21355;DHT22;10835;50.148;19.760;2023-08-06T15:25:12;24.10;84.00
21355;DHT22;10835;50.148;19.760;2023-08-06T15:27:42;24.30;84.50
21355;DHT22;10835;50.148;19.760;2023-08-06T15:30:11;24.30;84.20